sensor_id;sensor_type;location;lat;lon;timestamp;P1;durP1;ratioP1;P2;durP2;ratioP2
17488;SDS011;8861;52.644;4.734;2022-08-11T00:02:25;5.00;;;4.30;;
17488;SDS011;8861;52.644;4.734;2022-08-11T00:04:55;4.93;;;4.30;;
17488;SDS011;8861;52.644;4.734;2022-08-11T00:07:27;4.60;;;4.20;;
17488;SDS011;8861;52.644;4.734;2022-08-11T00:09:55;5.13;;;4.23;;
17488;SDS011;8861;52.644;4.734;2022-08-11T00:12:23;4.90;;;4.40;;
17488;SDS011;8861;52.644;4.734;2022-08-11T00:14:55;4.87;;;4.37;;
17488;SDS011;8861;52.644;4.734;2022-08-11T00:17:27;4.50;;;4.07;;
17488;SDS011;8861;52.644;4.734;2022-08-11T00:19:59;4.67;;;4.17;;
17488;SDS011;8861;52.644;4.734;2022-08-11T00:22:29;5.50;;;4.50;;
17488;SDS011;8861;52.644;4.734;2022-08-11T00:24:58;4.93;;;4.43;;
17488;SDS011;8861;52.644;4.734;2022-08-11T00:27:34;5.37;;;4.57;;
17488;SDS011;8861;52.644;4.734;2022-08-11T00:30:05;5.93;;;4.73;;
17488;SDS011;8861;52.644;4.734;2022-08-11T00:32:33;5.23;;;4.73;;
17488;SDS011;8861;52.644;4.734;2022-08-11T00:35:03;5.10;;;4.60;;
17488;SDS011;8861;52.644;4.734;2022-08-11T00:37:32;4.80;;;4.20;;
17488;SDS011;8861;52.644;4.734;2022-08-11T00:40:00;5.37;;;4.67;;
17488;SDS011;8861;52.644;4.734;2022-08-11T00:42:39;5.57;;;4.90;;
17488;SDS011;8861;52.644;4.734;2022-08-11T00:45:16;6.03;;;4.57;;
17488;SDS011;8861;52.644;4.734;2022-08-11T00:47:52;5.37;;;4.20;;
17488;SDS011;8861;52.644;4.734;2022-08-11T00:50:28;4.77;;;4.27;;
17488;SDS011;8861;52.644;4.734;2022-08-11T00:53:25;4.73;;;4.33;;
17488;SDS011;8861;52.644;4.734;2022-08-11T00:59:10;4.97;;;4.27;;
17488;SDS011;8861;52.644;4.734;2022-08-11T01:01:58;4.87;;;4.47;;
17488;SDS011;8861;52.644;4.734;2022-08-11T01:07:39;5.00;;;4.23;;
17488;SDS011;8861;52.644;4.734;2022-08-11T01:10:40;5.00;;;4.50;;
17488;SDS011;8861;52.644;4.734;2022-08-11T01:13:18;4.47;;;4.07;;
17488;SDS011;8861;52.644;4.734;2022-08-11T01:16:12;4.57;;;4.07;;
17488;SDS011;8861;52.644;4.734;2022-08-11T01:22:15;7.60;;;5.57;;
17488;SDS011;8861;52.644;4.734;2022-08-11T01:25:02;6.00;;;5.00;;
17488;SDS011;8861;52.644;4.734;2022-08-11T01:31:25;5.47;;;4.83;;
17488;SDS011;8861;52.644;4.734;2022-08-11T01:34:16;6.67;;;5.07;;
17488;SDS011;8861;52.644;4.734;2022-08-11T01:37:13;6.37;;;5.10;;
17488;SDS011;8861;52.644;4.734;2022-08-11T01:40:11;5.50;;;4.97;;
17488;SDS011;8861;52.644;4.734;2022-08-11T01:42:58;5.30;;;4.80;;
17488;SDS011;8861;52.644;4.734;2022-08-11T01:45:55;5.57;;;5.07;;
17488;SDS011;8861;52.644;4.734;2022-08-11T01:48:28;4.83;;;4.10;;
17488;SDS011;8861;52.644;4.734;2022-08-11T01:51:10;6.67;;;4.77;;
17488;SDS011;8861;52.644;4.734;2022-08-11T01:53:50;5.17;;;4.67;;
17488;SDS011;8861;52.644;4.734;2022-08-11T01:56:26;5.53;;;4.60;;
17488;SDS011;8861;52.644;4.734;2022-08-11T01:59:01;6.07;;;4.87;;
17488;SDS011;8861;52.644;4.734;2022-08-11T02:01:42;5.20;;;4.70;;
17488;SDS011;8861;52.644;4.734;2022-08-11T02:04:22;5.53;;;5.03;;
17488;SDS011;8861;52.644;4.734;2022-08-11T02:06:59;5.73;;;5.10;;
17488;SDS011;8861;52.644;4.734;2022-08-11T02:09:41;5.77;;;5.17;;
17488;SDS011;8861;52.644;4.734;2022-08-11T02:12:49;6.93;;;5.43;;
17488;SDS011;8861;52.644;4.734;2022-08-11T02:15:22;5.77;;;5.17;;
17488;SDS011;8861;52.644;4.734;2022-08-11T02:17:57;5.70;;;5.10;;
17488;SDS011;8861;52.644;4.734;2022-08-11T02:20:33;5.57;;;5.07;;
17488;SDS011;8861;52.644;4.734;2022-08-11T02:23:24;5.83;;;5.27;;
17488;SDS011;8861;52.644;4.734;2022-08-11T02:26:17;6.00;;;5.40;;
17488;SDS011;8861;52.644;4.734;2022-08-11T02:28:54;6.67;;;5.40;;
17488;SDS011;8861;52.644;4.734;2022-08-11T02:31:32;6.17;;;5.57;;
17488;SDS011;8861;52.644;4.734;2022-08-11T02:34:27;6.60;;;5.90;;
17488;SDS011;8861;52.644;4.734;2022-08-11T02:37:06;6.33;;;5.67;;
17488;SDS011;8861;52.644;4.734;2022-08-11T02:39:43;6.00;;;5.40;;
17488;SDS011;8861;52.644;4.734;2022-08-11T02:42:22;5.50;;;5.00;;
17488;SDS011;8861;52.644;4.734;2022-08-11T02:45:03;6.10;;;5.43;;
17488;SDS011;8861;52.644;4.734;2022-08-11T02:47:45;6.43;;;5.73;;
17488;SDS011;8861;52.644;4.734;2022-08-11T02:50:34;7.43;;;6.30;;
17488;SDS011;8861;52.644;4.734;2022-08-11T02:53:08;7.07;;;5.90;;
17488;SDS011;8861;52.644;4.734;2022-08-11T02:55:46;6.37;;;5.70;;
17488;SDS011;8861;52.644;4.734;2022-08-11T02:58:25;6.10;;;5.50;;
17488;SDS011;8861;52.644;4.734;2022-08-11T03:01:04;6.97;;;5.93;;
17488;SDS011;8861;52.644;4.734;2022-08-11T03:03:43;6.23;;;5.63;;
17488;SDS011;8861;52.644;4.734;2022-08-11T03:06:19;6.13;;;5.53;;
17488;SDS011;8861;52.644;4.734;2022-08-11T03:08:58;6.83;;;5.47;;
17488;SDS011;8861;52.644;4.734;2022-08-11T03:11:44;6.87;;;5.63;;
17488;SDS011;8861;52.644;4.734;2022-08-11T03:14:46;6.33;;;5.50;;
17488;SDS011;8861;52.644;4.734;2022-08-11T03:17:36;7.10;;;5.60;;
17488;SDS011;8861;52.644;4.734;2022-08-11T03:20:12;6.00;;;5.33;;
17488;SDS011;8861;52.644;4.734;2022-08-11T03:22:50;6.83;;;6.13;;
17488;SDS011;8861;52.644;4.734;2022-08-11T03:25:24;6.20;;;5.60;;
17488;SDS011;8861;52.644;4.734;2022-08-11T03:28:01;6.63;;;5.67;;
17488;SDS011;8861;52.644;4.734;2022-08-11T03:30:41;6.23;;;5.60;;
17488;SDS011;8861;52.644;4.734;2022-08-11T03:33:20;6.73;;;5.93;;
17488;SDS011;8861;52.644;4.734;2022-08-11T03:36:14;6.10;;;5.50;;
17488;SDS011;8861;52.644;4.734;2022-08-11T03:39:00;8.20;;;6.33;;
17488;SDS011;8861;52.644;4.734;2022-08-11T03:41:35;7.37;;;6.20;;
17488;SDS011;8861;52.644;4.734;2022-08-11T03:47:26;7.57;;;6.20;;
17488;SDS011;8861;52.644;4.734;2022-08-11T03:50:05;8.07;;;5.70;;
17488;SDS011;8861;52.644;4.734;2022-08-11T03:52:47;5.90;;;5.30;;
17488;SDS011;8861;52.644;4.734;2022-08-11T03:55:27;6.80;;;5.53;;
17488;SDS011;8861;52.644;4.734;2022-08-11T04:01:07;6.17;;;5.57;;
17488;SDS011;8861;52.644;4.734;2022-08-11T04:07:11;6.53;;;5.67;;
17488;SDS011;8861;52.644;4.734;2022-08-11T04:16:09;6.30;;;5.70;;
17488;SDS011;8861;52.644;4.734;2022-08-11T04:25:14;7.87;;;6.50;;
17488;SDS011;8861;52.644;4.734;2022-08-11T04:31:03;8.00;;;6.33;;
17488;SDS011;8861;52.644;4.734;2022-08-11T04:36:35;6.90;;;6.07;;
17488;SDS011;8861;52.644;4.734;2022-08-11T04:39:33;7.07;;;5.77;;
17488;SDS011;8861;52.644;4.734;2022-08-11T04:42:24;6.70;;;5.87;;
17488;SDS011;8861;52.644;4.734;2022-08-11T04:45:46;6.57;;;5.87;;
17488;SDS011;8861;52.644;4.734;2022-08-11T04:48:50;6.73;;;6.03;;
17488;SDS011;8861;52.644;4.734;2022-08-11T04:51:59;7.30;;;6.07;;
17488;SDS011;8861;52.644;4.734;2022-08-11T04:54:53;7.90;;;6.53;;
17488;SDS011;8861;52.644;4.734;2022-08-11T04:57:52;6.67;;;5.80;;
17488;SDS011;8861;52.644;4.734;2022-08-11T05:00:49;8.17;;;6.10;;
17488;SDS011;8861;52.644;4.734;2022-08-11T05:03:45;6.53;;;5.50;;
17488;SDS011;8861;52.644;4.734;2022-08-11T05:06:42;6.60;;;5.53;;
17488;SDS011;8861;52.644;4.734;2022-08-11T05:09:36;6.93;;;5.70;;
17488;SDS011;8861;52.644;4.734;2022-08-11T05:12:27;7.70;;;5.37;;
17488;SDS011;8861;52.644;4.734;2022-08-11T05:15:00;7.23;;;6.27;;
17488;SDS011;8861;52.644;4.734;2022-08-11T05:17:50;7.37;;;6.40;;
17488;SDS011;8861;52.644;4.734;2022-08-11T05:20:44;7.50;;;6.57;;
17488;SDS011;8861;52.644;4.734;2022-08-11T05:23:32;8.00;;;5.97;;
17488;SDS011;8861;52.644;4.734;2022-08-11T05:26:18;6.03;;;5.33;;
17488;SDS011;8861;52.644;4.734;2022-08-11T05:29:22;5.73;;;5.10;;
17488;SDS011;8861;52.644;4.734;2022-08-11T05:32:14;5.87;;;5.27;;
17488;SDS011;8861;52.644;4.734;2022-08-11T05:35:01;5.47;;;4.73;;
17488;SDS011;8861;52.644;4.734;2022-08-11T05:37:32;7.63;;;6.20;;
17488;SDS011;8861;52.644;4.734;2022-08-11T05:40:05;6.97;;;5.80;;
17488;SDS011;8861;52.644;4.734;2022-08-11T05:42:54;6.53;;;5.57;;
17488;SDS011;8861;52.644;4.734;2022-08-11T05:45:40;5.90;;;5.10;;
17488;SDS011;8861;52.644;4.734;2022-08-11T05:48:30;5.07;;;4.50;;
17488;SDS011;8861;52.644;4.734;2022-08-11T05:51:16;6.43;;;5.50;;
17488;SDS011;8861;52.644;4.734;2022-08-11T05:54:02;6.60;;;5.90;;
17488;SDS011;8861;52.644;4.734;2022-08-11T05:56:52;6.77;;;5.70;;
17488;SDS011;8861;52.644;4.734;2022-08-11T05:59:22;6.67;;;5.80;;
17488;SDS011;8861;52.644;4.734;2022-08-11T06:01:51;6.97;;;5.73;;
17488;SDS011;8861;52.644;4.734;2022-08-11T06:04:20;6.97;;;5.10;;
17488;SDS011;8861;52.644;4.734;2022-08-11T06:06:50;6.90;;;6.00;;
17488;SDS011;8861;52.644;4.734;2022-08-11T06:09:28;6.27;;;5.20;;
17488;SDS011;8861;52.644;4.734;2022-08-11T06:11:59;7.77;;;5.87;;
17488;SDS011;8861;52.644;4.734;2022-08-11T06:14:28;5.43;;;4.83;;
17488;SDS011;8861;52.644;4.734;2022-08-11T06:16:57;5.53;;;4.80;;
17488;SDS011;8861;52.644;4.734;2022-08-11T06:19:34;6.40;;;5.60;;
17488;SDS011;8861;52.644;4.734;2022-08-11T06:22:04;5.93;;;5.27;;
17488;SDS011;8861;52.644;4.734;2022-08-11T06:24:33;6.23;;;4.97;;
17488;SDS011;8861;52.644;4.734;2022-08-11T06:27:02;5.83;;;5.17;;
17488;SDS011;8861;52.644;4.734;2022-08-11T06:29:31;5.50;;;4.47;;
17488;SDS011;8861;52.644;4.734;2022-08-11T06:32:05;5.53;;;4.80;;
17488;SDS011;8861;52.644;4.734;2022-08-11T06:34:39;4.80;;;4.30;;
17488;SDS011;8861;52.644;4.734;2022-08-11T06:37:21;4.77;;;4.27;;
17488;SDS011;8861;52.644;4.734;2022-08-11T06:39:56;4.97;;;4.43;;
17488;SDS011;8861;52.644;4.734;2022-08-11T06:42:37;5.20;;;4.60;;
17488;SDS011;8861;52.644;4.734;2022-08-11T06:45:15;4.40;;;4.00;;
17488;SDS011;8861;52.644;4.734;2022-08-11T06:47:51;4.10;;;3.70;;
17488;SDS011;8861;52.644;4.734;2022-08-11T06:50:21;4.40;;;4.00;;
17488;SDS011;8861;52.644;4.734;2022-08-11T06:53:07;4.17;;;3.77;;
17488;SDS011;8861;52.644;4.734;2022-08-11T06:55:37;3.90;;;3.50;;
17488;SDS011;8861;52.644;4.734;2022-08-11T06:58:25;4.80;;;3.57;;
17488;SDS011;8861;52.644;4.734;2022-08-11T07:01:13;4.20;;;3.80;;
17488;SDS011;8861;52.644;4.734;2022-08-11T07:03:45;3.80;;;3.50;;
17488;SDS011;8861;52.644;4.734;2022-08-11T07:06:24;3.90;;;3.50;;
17488;SDS011;8861;52.644;4.734;2022-08-11T07:12:38;3.80;;;3.47;;
17488;SDS011;8861;52.644;4.734;2022-08-11T07:15:26;5.03;;;3.73;;
17488;SDS011;8861;52.644;4.734;2022-08-11T07:18:10;3.40;;;3.10;;
17488;SDS011;8861;52.644;4.734;2022-08-11T07:21:07;4.30;;;3.57;;
17488;SDS011;8861;52.644;4.734;2022-08-11T07:23:59;4.00;;;3.57;;
17488;SDS011;8861;52.644;4.734;2022-08-11T07:26:52;3.80;;;3.50;;
17488;SDS011;8861;52.644;4.734;2022-08-11T07:29:45;3.50;;;3.20;;
17488;SDS011;8861;52.644;4.734;2022-08-11T07:32:16;3.57;;;3.27;;
17488;SDS011;8861;52.644;4.734;2022-08-11T07:34:51;3.33;;;3.03;;
17488;SDS011;8861;52.644;4.734;2022-08-11T07:37:23;3.30;;;3.00;;
17488;SDS011;8861;52.644;4.734;2022-08-11T07:39:52;3.00;;;2.70;;
17488;SDS011;8861;52.644;4.734;2022-08-11T07:42:25;3.10;;;2.90;;
17488;SDS011;8861;52.644;4.734;2022-08-11T07:44:55;2.90;;;2.70;;
17488;SDS011;8861;52.644;4.734;2022-08-11T07:47:40;3.03;;;2.73;;
17488;SDS011;8861;52.644;4.734;2022-08-11T07:50:25;3.20;;;2.90;;
17488;SDS011;8861;52.644;4.734;2022-08-11T07:53:10;3.43;;;3.13;;
17488;SDS011;8861;52.644;4.734;2022-08-11T07:55:41;2.70;;;2.50;;
17488;SDS011;8861;52.644;4.734;2022-08-11T07:58:08;4.97;;;3.20;;
17488;SDS011;8861;52.644;4.734;2022-08-11T08:00:54;3.23;;;2.87;;
17488;SDS011;8861;52.644;4.734;2022-08-11T08:03:40;3.10;;;2.80;;
17488;SDS011;8861;52.644;4.734;2022-08-11T08:06:25;2.83;;;2.63;;
17488;SDS011;8861;52.644;4.734;2022-08-11T08:09:11;2.90;;;2.70;;
17488;SDS011;8861;52.644;4.734;2022-08-11T08:11:59;3.10;;;2.80;;
17488;SDS011;8861;52.644;4.734;2022-08-11T08:14:45;2.73;;;2.53;;
17488;SDS011;8861;52.644;4.734;2022-08-11T08:17:29;3.00;;;2.70;;
17488;SDS011;8861;52.644;4.734;2022-08-11T08:20:14;2.83;;;2.60;;
17488;SDS011;8861;52.644;4.734;2022-08-11T08:22:44;2.80;;;2.43;;
17488;SDS011;8861;52.644;4.734;2022-08-11T08:25:12;2.63;;;2.43;;
17488;SDS011;8861;52.644;4.734;2022-08-11T08:27:44;2.97;;;2.70;;
17488;SDS011;8861;52.644;4.734;2022-08-11T08:30:12;2.97;;;2.77;;
17488;SDS011;8861;52.644;4.734;2022-08-11T08:32:57;2.80;;;2.60;;
17488;SDS011;8861;52.644;4.734;2022-08-11T08:35:25;3.27;;;2.80;;
17488;SDS011;8861;52.644;4.734;2022-08-11T08:37:54;3.10;;;2.90;;
17488;SDS011;8861;52.644;4.734;2022-08-11T08:40:21;2.80;;;2.60;;
17488;SDS011;8861;52.644;4.734;2022-08-11T08:42:51;2.80;;;2.60;;
17488;SDS011;8861;52.644;4.734;2022-08-11T08:45:21;3.30;;;2.70;;
17488;SDS011;8861;52.644;4.734;2022-08-11T08:47:51;3.40;;;3.10;;
17488;SDS011;8861;52.644;4.734;2022-08-11T08:50:22;3.10;;;2.70;;
17488;SDS011;8861;52.644;4.734;2022-08-11T08:53:11;3.10;;;2.83;;
17488;SDS011;8861;52.644;4.734;2022-08-11T08:55:39;3.97;;;2.80;;
17488;SDS011;8861;52.644;4.734;2022-08-11T08:58:09;4.80;;;2.70;;
17488;SDS011;8861;52.644;4.734;2022-08-11T09:00:38;4.30;;;2.87;;
17488;SDS011;8861;52.644;4.734;2022-08-11T09:03:07;3.50;;;2.60;;
17488;SDS011;8861;52.644;4.734;2022-08-11T09:05:35;2.87;;;2.43;;
17488;SDS011;8861;52.644;4.734;2022-08-11T09:08:03;3.00;;;2.63;;
17488;SDS011;8861;52.644;4.734;2022-08-11T09:10:31;2.80;;;2.60;;
17488;SDS011;8861;52.644;4.734;2022-08-11T09:12:59;2.87;;;2.57;;
17488;SDS011;8861;52.644;4.734;2022-08-11T09:15:30;3.13;;;2.77;;
17488;SDS011;8861;52.644;4.734;2022-08-11T09:17:59;3.43;;;2.70;;
17488;SDS011;8861;52.644;4.734;2022-08-11T09:20:31;2.73;;;2.40;;
17488;SDS011;8861;52.644;4.734;2022-08-11T09:23:01;2.67;;;2.47;;
17488;SDS011;8861;52.644;4.734;2022-08-11T09:25:47;2.70;;;2.50;;
17488;SDS011;8861;52.644;4.734;2022-08-11T09:28:34;2.43;;;2.23;;
17488;SDS011;8861;52.644;4.734;2022-08-11T09:31:03;3.13;;;2.70;;
17488;SDS011;8861;52.644;4.734;2022-08-11T09:33:32;2.60;;;2.40;;
17488;SDS011;8861;52.644;4.734;2022-08-11T09:36:00;2.80;;;2.60;;
17488;SDS011;8861;52.644;4.734;2022-08-11T09:38:49;2.80;;;2.53;;
17488;SDS011;8861;52.644;4.734;2022-08-11T09:41:34;3.60;;;2.57;;
17488;SDS011;8861;52.644;4.734;2022-08-11T09:44:03;4.60;;;3.00;;
17488;SDS011;8861;52.644;4.734;2022-08-11T09:46:51;2.70;;;2.50;;
17488;SDS011;8861;52.644;4.734;2022-08-11T09:49:21;2.50;;;2.30;;
17488;SDS011;8861;52.644;4.734;2022-08-11T09:51:49;3.67;;;2.50;;
17488;SDS011;8861;52.644;4.734;2022-08-11T09:54:16;2.73;;;2.50;;
17488;SDS011;8861;52.644;4.734;2022-08-11T09:56:44;2.60;;;2.33;;
17488;SDS011;8861;52.644;4.734;2022-08-11T09:59:29;2.90;;;2.50;;
17488;SDS011;8861;52.644;4.734;2022-08-11T10:01:59;2.90;;;2.60;;
17488;SDS011;8861;52.644;4.734;2022-08-11T10:04:30;3.00;;;2.70;;
17488;SDS011;8861;52.644;4.734;2022-08-11T10:07:01;2.60;;;2.33;;
17488;SDS011;8861;52.644;4.734;2022-08-11T10:09:35;2.50;;;2.23;;
17488;SDS011;8861;52.644;4.734;2022-08-11T10:12:07;2.37;;;2.17;;
17488;SDS011;8861;52.644;4.734;2022-08-11T10:14:38;4.77;;;2.10;;
17488;SDS011;8861;52.644;4.734;2022-08-11T10:17:28;3.07;;;2.00;;
17488;SDS011;8861;52.644;4.734;2022-08-11T10:19:58;2.27;;;2.17;;
17488;SDS011;8861;52.644;4.734;2022-08-11T10:22:28;2.87;;;2.00;;
17488;SDS011;8861;52.644;4.734;2022-08-11T10:25:14;1.90;;;1.77;;
17488;SDS011;8861;52.644;4.734;2022-08-11T10:27:59;2.17;;;2.03;;
17488;SDS011;8861;52.644;4.734;2022-08-11T10:30:29;2.53;;;1.97;;
17488;SDS011;8861;52.644;4.734;2022-08-11T10:33:15;2.10;;;1.90;;
17488;SDS011;8861;52.644;4.734;2022-08-11T10:36:01;2.53;;;1.80;;
17488;SDS011;8861;52.644;4.734;2022-08-11T10:38:30;2.03;;;1.77;;
17488;SDS011;8861;52.644;4.734;2022-08-11T10:40:57;3.67;;;2.00;;
17488;SDS011;8861;52.644;4.734;2022-08-11T10:43:42;2.07;;;1.87;;
17488;SDS011;8861;52.644;4.734;2022-08-11T10:46:09;2.63;;;1.77;;
17488;SDS011;8861;52.644;4.734;2022-08-11T10:48:56;1.80;;;1.70;;
17488;SDS011;8861;52.644;4.734;2022-08-11T10:51:24;1.80;;;1.70;;
17488;SDS011;8861;52.644;4.734;2022-08-11T10:54:09;2.10;;;1.80;;
17488;SDS011;8861;52.644;4.734;2022-08-11T10:56:54;2.10;;;1.70;;
17488;SDS011;8861;52.644;4.734;2022-08-11T10:59:39;1.90;;;1.70;;
17488;SDS011;8861;52.644;4.734;2022-08-11T11:02:08;1.90;;;1.67;;
17488;SDS011;8861;52.644;4.734;2022-08-11T11:04:42;2.40;;;1.80;;
17488;SDS011;8861;52.644;4.734;2022-08-11T11:07:24;3.70;;;1.80;;
17488;SDS011;8861;52.644;4.734;2022-08-11T11:09:57;1.90;;;1.50;;
17488;SDS011;8861;52.644;4.734;2022-08-11T11:12:29;2.40;;;1.60;;
17488;SDS011;8861;52.644;4.734;2022-08-11T11:15:15;1.80;;;1.53;;
17488;SDS011;8861;52.644;4.734;2022-08-11T11:18:02;2.20;;;1.53;;
17488;SDS011;8861;52.644;4.734;2022-08-11T11:20:37;1.67;;;1.43;;
17488;SDS011;8861;52.644;4.734;2022-08-11T11:23:07;1.70;;;1.57;;
17488;SDS011;8861;52.644;4.734;2022-08-11T11:25:45;1.97;;;1.80;;
17488;SDS011;8861;52.644;4.734;2022-08-11T11:28:46;2.60;;;1.90;;
17488;SDS011;8861;52.644;4.734;2022-08-11T11:31:33;2.83;;;1.60;;
17488;SDS011;8861;52.644;4.734;2022-08-11T11:34:16;2.13;;;1.73;;
17488;SDS011;8861;52.644;4.734;2022-08-11T11:36:57;2.40;;;1.83;;
17488;SDS011;8861;52.644;4.734;2022-08-11T11:39:26;2.33;;;1.87;;
17488;SDS011;8861;52.644;4.734;2022-08-11T11:41:56;2.30;;;2.00;;
17488;SDS011;8861;52.644;4.734;2022-08-11T11:44:25;3.37;;;1.87;;
17488;SDS011;8861;52.644;4.734;2022-08-11T11:46:53;1.97;;;1.87;;
17488;SDS011;8861;52.644;4.734;2022-08-11T11:49:21;2.40;;;1.87;;
17488;SDS011;8861;52.644;4.734;2022-08-11T11:51:50;2.87;;;2.00;;
17488;SDS011;8861;52.644;4.734;2022-08-11T11:54:20;2.00;;;1.83;;
17488;SDS011;8861;52.644;4.734;2022-08-11T11:59:21;1.80;;;1.70;;
17488;SDS011;8861;52.644;4.734;2022-08-11T12:02:09;2.10;;;1.90;;
17488;SDS011;8861;52.644;4.734;2022-08-11T12:04:39;2.40;;;2.20;;
17488;SDS011;8861;52.644;4.734;2022-08-11T12:07:08;3.47;;;2.20;;
17488;SDS011;8861;52.644;4.734;2022-08-11T12:09:55;2.33;;;2.13;;
17488;SDS011;8861;52.644;4.734;2022-08-11T12:12:23;2.53;;;2.00;;
17488;SDS011;8861;52.644;4.734;2022-08-11T12:15:08;2.53;;;2.20;;
17488;SDS011;8861;52.644;4.734;2022-08-11T12:17:36;2.23;;;2.03;;
17488;SDS011;8861;52.644;4.734;2022-08-11T12:20:05;4.17;;;2.30;;
17488;SDS011;8861;52.644;4.734;2022-08-11T12:22:33;2.30;;;2.10;;
17488;SDS011;8861;52.644;4.734;2022-08-11T12:25:19;2.20;;;2.00;;
17488;SDS011;8861;52.644;4.734;2022-08-11T12:28:04;2.20;;;1.97;;
17488;SDS011;8861;52.644;4.734;2022-08-11T12:30:31;2.03;;;1.87;;
17488;SDS011;8861;52.644;4.734;2022-08-11T12:32:58;3.20;;;1.90;;
17488;SDS011;8861;52.644;4.734;2022-08-11T12:35:25;2.10;;;1.90;;
17488;SDS011;8861;52.644;4.734;2022-08-11T12:37:53;2.40;;;2.00;;
17488;SDS011;8861;52.644;4.734;2022-08-11T12:40:25;2.27;;;1.90;;
17488;SDS011;8861;52.644;4.734;2022-08-11T12:43:08;2.77;;;2.03;;
17488;SDS011;8861;52.644;4.734;2022-08-11T12:45:56;1.80;;;1.70;;
17488;SDS011;8861;52.644;4.734;2022-08-11T12:48:26;2.13;;;2.00;;
17488;SDS011;8861;52.644;4.734;2022-08-11T12:51:15;2.77;;;1.93;;
17488;SDS011;8861;52.644;4.734;2022-08-11T12:54:05;1.90;;;1.80;;
17488;SDS011;8861;52.644;4.734;2022-08-11T12:56:38;2.73;;;1.90;;
17488;SDS011;8861;52.644;4.734;2022-08-11T12:59:26;2.10;;;1.83;;
17488;SDS011;8861;52.644;4.734;2022-08-11T13:02:14;2.10;;;1.90;;
17488;SDS011;8861;52.644;4.734;2022-08-11T13:04:59;2.03;;;1.60;;
17488;SDS011;8861;52.644;4.734;2022-08-11T13:07:28;1.97;;;1.60;;
17488;SDS011;8861;52.644;4.734;2022-08-11T13:09:57;3.17;;;2.07;;
17488;SDS011;8861;52.644;4.734;2022-08-11T13:12:27;1.93;;;1.83;;
17488;SDS011;8861;52.644;4.734;2022-08-11T13:15:15;3.03;;;1.77;;
17488;SDS011;8861;52.644;4.734;2022-08-11T13:17:44;3.30;;;1.70;;
17488;SDS011;8861;52.644;4.734;2022-08-11T13:20:15;2.43;;;1.90;;
17488;SDS011;8861;52.644;4.734;2022-08-11T13:22:45;1.90;;;1.67;;
17488;SDS011;8861;52.644;4.734;2022-08-11T13:25:14;1.60;;;1.50;;
17488;SDS011;8861;52.644;4.734;2022-08-11T13:27:44;1.63;;;1.53;;
17488;SDS011;8861;52.644;4.734;2022-08-11T13:30:13;3.97;;;1.63;;
17488;SDS011;8861;52.644;4.734;2022-08-11T13:33:00;1.70;;;1.50;;
17488;SDS011;8861;52.644;4.734;2022-08-11T13:35:29;2.23;;;1.70;;
17488;SDS011;8861;52.644;4.734;2022-08-11T13:37:57;2.17;;;1.83;;
17488;SDS011;8861;52.644;4.734;2022-08-11T13:40:26;1.90;;;1.80;;
17488;SDS011;8861;52.644;4.734;2022-08-11T13:42:55;2.83;;;1.70;;
17488;SDS011;8861;52.644;4.734;2022-08-11T13:45:23;2.23;;;1.90;;
17488;SDS011;8861;52.644;4.734;2022-08-11T13:47:51;2.10;;;1.90;;
17488;SDS011;8861;52.644;4.734;2022-08-11T13:50:22;2.10;;;2.00;;
17488;SDS011;8861;52.644;4.734;2022-08-11T13:53:11;2.27;;;2.07;;
17488;SDS011;8861;52.644;4.734;2022-08-11T13:55:40;2.10;;;1.90;;
17488;SDS011;8861;52.644;4.734;2022-08-11T13:58:09;2.03;;;1.87;;
17488;SDS011;8861;52.644;4.734;2022-08-11T14:00:38;2.73;;;2.10;;
17488;SDS011;8861;52.644;4.734;2022-08-11T14:03:07;2.20;;;2.00;;
17488;SDS011;8861;52.644;4.734;2022-08-11T14:05:36;2.77;;;2.00;;
17488;SDS011;8861;52.644;4.734;2022-08-11T14:08:07;2.20;;;2.00;;
17488;SDS011;8861;52.644;4.734;2022-08-11T14:10:37;4.73;;;2.23;;
17488;SDS011;8861;52.644;4.734;2022-08-11T14:13:06;2.40;;;2.20;;
17488;SDS011;8861;52.644;4.734;2022-08-11T14:15:54;2.53;;;2.10;;
17488;SDS011;8861;52.644;4.734;2022-08-11T14:18:27;1.60;;;1.50;;
17488;SDS011;8861;52.644;4.734;2022-08-11T14:20:55;1.93;;;1.63;;
17488;SDS011;8861;52.644;4.734;2022-08-11T14:23:42;1.60;;;1.50;;
17488;SDS011;8861;52.644;4.734;2022-08-11T14:26:12;1.50;;;1.40;;
17488;SDS011;8861;52.644;4.734;2022-08-11T14:28:52;1.40;;;1.30;;
17488;SDS011;8861;52.644;4.734;2022-08-11T14:31:24;1.30;;;1.20;;
17488;SDS011;8861;52.644;4.734;2022-08-11T14:33:54;1.20;;;1.10;;
17488;SDS011;8861;52.644;4.734;2022-08-11T14:36:25;1.90;;;1.37;;
17488;SDS011;8861;52.644;4.734;2022-08-11T14:38:55;1.77;;;1.38;;
17488;SDS011;8861;52.644;4.734;2022-08-11T14:41:23;1.38;;;1.27;;
17488;SDS011;8861;52.644;4.734;2022-08-11T14:44:09;2.28;;;1.30;;
17488;SDS011;8861;52.644;4.734;2022-08-11T14:46:56;1.23;;;1.20;;
17488;SDS011;8861;52.644;4.734;2022-08-11T14:49:40;2.40;;;1.13;;
17488;SDS011;8861;52.644;4.734;2022-08-11T14:52:08;1.53;;;1.17;;
17488;SDS011;8861;52.644;4.734;2022-08-11T14:54:41;3.80;;;1.50;;
17488;SDS011;8861;52.644;4.734;2022-08-11T14:57:27;1.40;;;1.30;;
17488;SDS011;8861;52.644;4.734;2022-08-11T14:59:57;3.70;;;1.50;;
17488;SDS011;8861;52.644;4.734;2022-08-11T15:02:29;1.60;;;1.50;;
17488;SDS011;8861;52.644;4.734;2022-08-11T15:05:14;1.77;;;1.50;;
17488;SDS011;8861;52.644;4.734;2022-08-11T15:07:41;1.40;;;1.30;;
17488;SDS011;8861;52.644;4.734;2022-08-11T15:10:08;2.63;;;1.40;;
17488;SDS011;8861;52.644;4.734;2022-08-11T15:12:36;1.50;;;1.40;;
17488;SDS011;8861;52.644;4.734;2022-08-11T15:15:06;1.90;;;1.70;;
17488;SDS011;8861;52.644;4.734;2022-08-11T15:17:54;1.90;;;1.70;;
17488;SDS011;8861;52.644;4.734;2022-08-11T15:20:22;2.83;;;1.90;;
17488;SDS011;8861;52.644;4.734;2022-08-11T15:23:09;4.20;;;1.90;;
17488;SDS011;8861;52.644;4.734;2022-08-11T15:25:56;2.73;;;1.87;;
17488;SDS011;8861;52.644;4.734;2022-08-11T15:28:26;2.10;;;1.90;;
17488;SDS011;8861;52.644;4.734;2022-08-11T15:31:13;1.80;;;1.70;;
17488;SDS011;8861;52.644;4.734;2022-08-11T15:34:01;2.70;;;1.90;;
17488;SDS011;8861;52.644;4.734;2022-08-11T15:36:48;2.30;;;2.10;;
17488;SDS011;8861;52.644;4.734;2022-08-11T15:39:38;3.43;;;2.40;;
17488;SDS011;8861;52.644;4.734;2022-08-11T15:42:33;2.33;;;2.13;;
17488;SDS011;8861;52.644;4.734;2022-08-11T15:45:23;3.83;;;2.30;;
17488;SDS011;8861;52.644;4.734;2022-08-11T15:48:09;4.33;;;2.60;;
17488;SDS011;8861;52.644;4.734;2022-08-11T15:50:44;2.40;;;2.20;;
17488;SDS011;8861;52.644;4.734;2022-08-11T15:53:16;3.27;;;2.60;;
17488;SDS011;8861;52.644;4.734;2022-08-11T15:55:47;4.70;;;2.50;;
17488;SDS011;8861;52.644;4.734;2022-08-11T15:58:16;2.80;;;2.60;;
17488;SDS011;8861;52.644;4.734;2022-08-11T16:01:03;2.97;;;2.67;;
17488;SDS011;8861;52.644;4.734;2022-08-11T16:03:50;3.70;;;2.50;;
17488;SDS011;8861;52.644;4.734;2022-08-11T16:06:41;3.70;;;2.70;;
17488;SDS011;8861;52.644;4.734;2022-08-11T16:09:11;2.90;;;2.47;;
17488;SDS011;8861;52.644;4.734;2022-08-11T16:11:40;4.30;;;2.37;;
17488;SDS011;8861;52.644;4.734;2022-08-11T16:14:10;3.47;;;2.53;;
17488;SDS011;8861;52.644;4.734;2022-08-11T16:16:55;3.07;;;2.70;;
17488;SDS011;8861;52.644;4.734;2022-08-11T16:19:24;3.20;;;2.43;;
17488;SDS011;8861;52.644;4.734;2022-08-11T16:22:01;2.57;;;2.23;;
17488;SDS011;8861;52.644;4.734;2022-08-11T16:24:31;3.97;;;2.50;;
17488;SDS011;8861;52.644;4.734;2022-08-11T16:27:00;2.53;;;2.23;;
17488;SDS011;8861;52.644;4.734;2022-08-11T16:29:29;4.10;;;2.77;;
17488;SDS011;8861;52.644;4.734;2022-08-11T16:31:57;3.43;;;2.60;;
17488;SDS011;8861;52.644;4.734;2022-08-11T16:34:46;3.03;;;2.73;;
17488;SDS011;8861;52.644;4.734;2022-08-11T16:37:36;2.60;;;2.40;;
17488;SDS011;8861;52.644;4.734;2022-08-11T16:40:21;2.70;;;2.50;;
17488;SDS011;8861;52.644;4.734;2022-08-11T16:42:49;3.43;;;2.70;;
17488;SDS011;8861;52.644;4.734;2022-08-11T16:45:36;3.53;;;3.00;;
17488;SDS011;8861;52.644;4.734;2022-08-11T16:48:23;2.70;;;2.50;;
17488;SDS011;8861;52.644;4.734;2022-08-11T16:50:54;3.77;;;2.80;;
17488;SDS011;8861;52.644;4.734;2022-08-11T16:53:25;6.60;;;3.50;;
17488;SDS011;8861;52.644;4.734;2022-08-11T16:55:53;5.50;;;3.73;;